sensor_id;sensor_type;location;lat;lon;timestamp;pressure;altitude;pressure_sealevel;temperature;humidity
22651;BME280;11492;42.646;23.400;2023-02-03T00:01:26;95253.66;;;4.47;62.05
22651;BME280;11492;42.646;23.400;2023-02-03T00:03:52;95263.09;;;4.47;60.90
22651;BME280;11492;42.646;23.400;2023-02-03T00:06:17;95267.41;;;4.37;61.83
22651;BME280;11492;42.646;23.400;2023-02-03T00:08:43;95266.44;;;4.38;61.68
22651;BME280;11492;42.646;23.400;2023-02-03T00:11:08;95265.50;;;4.48;62.03
22651;BME280;11492;42.646;23.400;2023-02-03T00:13:34;95267.41;;;4.47;62.37
22651;BME280;11492;42.646;23.400;2023-02-03T00:16:00;95256.66;;;4.06;63.27
22651;BME280;11492;42.646;23.400;2023-02-03T00:18:31;95276.13;;;3.97;64.41
22651;BME280;11492;42.646;23.400;2023-02-03T00:20:57;95275.50;;;4.14;63.51
22651;BME280;11492;42.646;23.400;2023-02-03T00:23:22;95276.81;;;4.18;63.82
22651;BME280;11492;42.646;23.400;2023-02-03T00:25:48;95281.41;;;4.15;64.49
22651;BME280;11492;42.646;23.400;2023-02-03T00:28:13;95271.97;;;4.06;64.37
22651;BME280;11492;42.646;23.400;2023-02-03T00:30:39;95289.97;;;4.14;64.89
22651;BME280;11492;42.646;23.400;2023-02-03T00:33:04;95286.75;;;4.02;65.32
22651;BME280;11492;42.646;23.400;2023-02-03T00:35:30;95284.59;;;3.89;65.59
22651;BME280;11492;42.646;23.400;2023-02-03T00:37:56;95280.28;;;3.80;66.09
22651;BME280;11492;42.646;23.400;2023-02-03T00:40:24;95299.06;;;3.70;66.66
22651;BME280;11492;42.646;23.400;2023-02-03T00:42:50;95295.63;;;3.89;67.33
22651;BME280;11492;42.646;23.400;2023-02-03T00:45:16;95302.59;;;3.97;66.94
22651;BME280;11492;42.646;23.400;2023-02-03T00:47:41;95294.25;;;3.85;66.57
22651;BME280;11492;42.646;23.400;2023-02-03T00:50:07;95309.41;;;3.68;68.59
22651;BME280;11492;42.646;23.400;2023-02-03T00:52:33;95318.22;;;3.55;68.87
22651;BME280;11492;42.646;23.400;2023-02-03T00:54:58;95305.09;;;3.59;69.05
22651;BME280;11492;42.646;23.400;2023-02-03T00:57:24;95306.44;;;3.63;69.72
22651;BME280;11492;42.646;23.400;2023-02-03T00:59:49;95310.63;;;3.64;69.68
22651;BME280;11492;42.646;23.400;2023-02-03T01:02:15;95309.00;;;3.72;69.18
22651;BME280;11492;42.646;23.400;2023-02-03T01:04:41;95314.69;;;3.85;69.32
22651;BME280;11492;42.646;23.400;2023-02-03T01:07:07;95315.53;;;3.95;69.64
22651;BME280;11492;42.646;23.400;2023-02-03T01:09:33;95311.88;;;3.97;69.11
22651;BME280;11492;42.646;23.400;2023-02-03T01:11:59;95323.56;;;3.91;69.45
22651;BME280;11492;42.646;23.400;2023-02-03T01:14:24;95329.34;;;3.93;69.43
22651;BME280;11492;42.646;23.400;2023-02-03T01:16:50;95315.75;;;3.83;69.39
22651;BME280;11492;42.646;23.400;2023-02-03T01:19:15;95315.47;;;3.76;70.21
22651;BME280;11492;42.646;23.400;2023-02-03T01:21:41;95312.25;;;3.74;70.53
22651;BME280;11492;42.646;23.400;2023-02-03T01:24:06;95323.25;;;3.75;70.60
22651;BME280;11492;42.646;23.400;2023-02-03T01:26:33;95315.06;;;3.81;71.27
22651;BME280;11492;42.646;23.400;2023-02-03T01:28:59;95312.53;;;3.81;71.60
22651;BME280;11492;42.646;23.400;2023-02-03T01:31:30;95298.56;;;3.85;71.23
22651;BME280;11492;42.646;23.400;2023-02-03T01:33:57;95304.66;;;3.54;70.45
22651;BME280;11492;42.646;23.400;2023-02-03T01:36:25;95315.81;;;3.53;71.33
22651;BME280;11492;42.646;23.400;2023-02-03T01:38:50;95309.81;;;3.64;71.18
22651;BME280;11492;42.646;23.400;2023-02-03T01:41:22;95312.09;;;3.57;69.72
22651;BME280;11492;42.646;23.400;2023-02-03T01:43:50;95319.13;;;3.45;69.53
22651;BME280;11492;42.646;23.400;2023-02-03T01:46:32;95320.66;;;3.56;69.92
22651;BME280;11492;42.646;23.400;2023-02-03T01:49:10;95327.81;;;3.72;69.59
22651;BME280;11492;42.646;23.400;2023-02-03T01:51:39;95324.31;;;3.63;68.79
22651;BME280;11492;42.646;23.400;2023-02-03T01:54:08;95332.13;;;3.71;68.40
22651;BME280;11492;42.646;23.400;2023-02-03T01:56:38;95325.78;;;3.66;67.72
22651;BME280;11492;42.646;23.400;2023-02-03T01:59:05;95329.53;;;3.62;68.28
22651;BME280;11492;42.646;23.400;2023-02-03T02:01:31;95331.56;;;3.58;67.68
22651;BME280;11492;42.646;23.400;2023-02-03T02:03:58;95337.81;;;3.45;67.78
22651;BME280;11492;42.646;23.400;2023-02-03T02:06:25;95336.66;;;3.29;68.40
22651;BME280;11492;42.646;23.400;2023-02-03T02:08:52;95337.19;;;3.23;67.90
22651;BME280;11492;42.646;23.400;2023-02-03T02:11:19;95333.47;;;3.36;68.02
22651;BME280;11492;42.646;23.400;2023-02-03T02:13:46;95332.28;;;3.40;67.87
22651;BME280;11492;42.646;23.400;2023-02-03T02:38:33;95350.38;;;3.08;68.32
22651;BME280;11492;42.646;23.400;2023-02-03T02:41:09;95346.97;;;3.18;67.81
22651;BME280;11492;42.646;23.400;2023-02-03T02:43:42;95352.00;;;3.09;68.73
22651;BME280;11492;42.646;23.400;2023-02-03T02:48:49;95330.13;;;3.06;68.49
22651;BME280;11492;42.646;23.400;2023-02-03T02:51:17;95330.31;;;2.94;68.44
22651;BME280;11492;42.646;23.400;2023-02-03T02:53:53;95334.28;;;3.07;68.42
22651;BME280;11492;42.646;23.400;2023-02-03T02:56:22;95329.78;;;3.20;67.65
22651;BME280;11492;42.646;23.400;2023-02-03T02:58:49;95339.44;;;3.17;67.53
22651;BME280;11492;42.646;23.400;2023-02-03T03:01:16;95328.53;;;3.05;66.99
22651;BME280;11492;42.646;23.400;2023-02-03T03:03:43;95348.28;;;3.13;66.58
22651;BME280;11492;42.646;23.400;2023-02-03T03:06:20;95355.72;;;3.05;66.27
22651;BME280;11492;42.646;23.400;2023-02-03T03:08:51;95347.72;;;2.89;67.08
22651;BME280;11492;42.646;23.400;2023-02-03T03:11:18;95351.78;;;2.72;67.68
22651;BME280;11492;42.646;23.400;2023-02-03T03:13:49;95354.56;;;2.89;66.96
22651;BME280;11492;42.646;23.400;2023-02-03T03:16:17;95359.72;;;2.78;67.20
22651;BME280;11492;42.646;23.400;2023-02-03T03:18:48;95358.34;;;2.74;66.84
22651;BME280;11492;42.646;23.400;2023-02-03T03:21:23;95343.50;;;2.79;66.44
22651;BME280;11492;42.646;23.400;2023-02-03T03:23:51;95358.19;;;2.86;66.06
22651;BME280;11492;42.646;23.400;2023-02-03T03:29:31;95364.53;;;2.92;65.77
22651;BME280;11492;42.646;23.400;2023-02-03T03:32:00;95383.53;;;3.08;66.25
22651;BME280;11492;42.646;23.400;2023-02-03T03:34:26;95383.69;;;3.06;65.69
22651;BME280;11492;42.646;23.400;2023-02-03T03:39:49;95388.13;;;3.14;64.42
22651;BME280;11492;42.646;23.400;2023-02-03T03:47:40;95408.66;;;3.12;64.20
22651;BME280;11492;42.646;23.400;2023-02-03T03:50:11;95414.38;;;3.05;64.77
22651;BME280;11492;42.646;23.400;2023-02-03T03:52:41;95395.78;;;2.94;64.42
22651;BME280;11492;42.646;23.400;2023-02-03T03:55:09;95397.91;;;3.09;64.03
22651;BME280;11492;42.646;23.400;2023-02-03T03:57:57;95412.31;;;2.99;64.58
22651;BME280;11492;42.646;23.400;2023-02-03T04:00:26;95411.88;;;3.14;63.93
22651;BME280;11492;42.646;23.400;2023-02-03T04:02:54;95418.94;;;3.22;64.19
22651;BME280;11492;42.646;23.400;2023-02-03T04:05:21;95417.84;;;3.24;63.72
22651;BME280;11492;42.646;23.400;2023-02-03T04:07:48;95412.63;;;3.25;62.93
22651;BME280;11492;42.646;23.400;2023-02-03T04:12:47;95431.09;;;3.38;63.83
22651;BME280;11492;42.646;23.400;2023-02-03T04:15:13;95403.34;;;3.24;62.99
22651;BME280;11492;42.646;23.400;2023-02-03T04:17:38;95432.16;;;3.36;63.36
22651;BME280;11492;42.646;23.400;2023-02-03T04:20:04;95426.28;;;3.45;63.40
22651;BME280;11492;42.646;23.400;2023-02-03T04:22:29;95436.50;;;3.45;63.55
22651;BME280;11492;42.646;23.400;2023-02-03T04:24:55;95440.56;;;3.27;63.32
22651;BME280;11492;42.646;23.400;2023-02-03T04:27:26;95436.22;;;3.38;63.66
22651;BME280;11492;42.646;23.400;2023-02-03T04:29:51;95444.59;;;3.29;63.97
22651;BME280;11492;42.646;23.400;2023-02-03T04:32:17;95439.94;;;3.34;63.85
22651;BME280;11492;42.646;23.400;2023-02-03T04:34:42;95435.94;;;3.41;64.11
22651;BME280;11492;42.646;23.400;2023-02-03T04:37:08;95439.13;;;3.34;64.26
22651;BME280;11492;42.646;23.400;2023-02-03T04:39:33;95447.22;;;3.39;64.14
22651;BME280;11492;42.646;23.400;2023-02-03T04:41:58;95447.09;;;3.20;63.96
22651;BME280;11492;42.646;23.400;2023-02-03T04:44:24;95449.78;;;3.19;64.69
22651;BME280;11492;42.646;23.400;2023-02-03T04:46:49;95448.91;;;3.09;64.72
22651;BME280;11492;42.646;23.400;2023-02-03T04:49:15;95463.81;;;2.93;65.02
22651;BME280;11492;42.646;23.400;2023-02-03T04:51:42;95470.16;;;2.98;64.77
22651;BME280;11492;42.646;23.400;2023-02-03T04:54:08;95462.06;;;2.94;65.24
22651;BME280;11492;42.646;23.400;2023-02-03T04:56:33;95471.22;;;2.96;64.82
22651;BME280;11492;42.646;23.400;2023-02-03T04:58:59;95472.97;;;2.96;65.19
22651;BME280;11492;42.646;23.400;2023-02-03T05:01:24;95468.22;;;2.91;64.80
22651;BME280;11492;42.646;23.400;2023-02-03T05:03:50;95472.53;;;2.91;64.78
22651;BME280;11492;42.646;23.400;2023-02-03T05:06:15;95473.16;;;3.03;65.09
22651;BME280;11492;42.646;23.400;2023-02-03T05:08:40;95483.78;;;3.08;65.56
22651;BME280;11492;42.646;23.400;2023-02-03T05:11:06;95491.41;;;2.88;64.61
22651;BME280;11492;42.646;23.400;2023-02-03T05:13:31;95495.34;;;2.92;65.31
22651;BME280;11492;42.646;23.400;2023-02-03T05:15:57;95491.13;;;3.02;64.45
22651;BME280;11492;42.646;23.400;2023-02-03T05:18:22;95496.41;;;3.10;64.93
22651;BME280;11492;42.646;23.400;2023-02-03T05:20:47;95490.41;;;3.11;64.22
22651;BME280;11492;42.646;23.400;2023-02-03T05:23:13;95499.59;;;3.02;64.93
22651;BME280;11492;42.646;23.400;2023-02-03T05:25:38;95500.13;;;2.86;64.99
22651;BME280;11492;42.646;23.400;2023-02-03T05:28:04;95498.91;;;2.90;65.34
22651;BME280;11492;42.646;23.400;2023-02-03T05:30:29;95506.28;;;3.03;64.41
22651;BME280;11492;42.646;23.400;2023-02-03T05:32:55;95508.88;;;2.93;64.52
22651;BME280;11492;42.646;23.400;2023-02-03T05:35:20;95499.34;;;3.05;65.24
22651;BME280;11492;42.646;23.400;2023-02-03T05:37:45;95495.19;;;2.94;65.22
22651;BME280;11492;42.646;23.400;2023-02-03T05:40:12;95501.00;;;2.96;65.16
22651;BME280;11492;42.646;23.400;2023-02-03T05:42:56;95498.06;;;3.00;64.25
22651;BME280;11492;42.646;23.400;2023-02-03T05:45:22;95502.19;;;2.92;64.75
22651;BME280;11492;42.646;23.400;2023-02-03T05:47:48;95504.91;;;2.99;66.25
22651;BME280;11492;42.646;23.400;2023-02-03T05:50:13;95505.13;;;3.07;65.03
22651;BME280;11492;42.646;23.400;2023-02-03T05:52:38;95504.50;;;2.84;65.71
22651;BME280;11492;42.646;23.400;2023-02-03T05:55:04;95504.69;;;3.02;65.05
22651;BME280;11492;42.646;23.400;2023-02-03T05:57:30;95504.19;;;3.08;65.22
22651;BME280;11492;42.646;23.400;2023-02-03T05:59:55;95498.72;;;3.13;65.19
22651;BME280;11492;42.646;23.400;2023-02-03T06:02:20;95501.91;;;2.95;63.90
22651;BME280;11492;42.646;23.400;2023-02-03T06:04:46;95510.13;;;2.98;64.64
22651;BME280;11492;42.646;23.400;2023-02-03T06:07:11;95515.69;;;3.03;64.80
22651;BME280;11492;42.646;23.400;2023-02-03T06:09:36;95512.56;;;2.99;64.68
22651;BME280;11492;42.646;23.400;2023-02-03T06:12:02;95511.28;;;2.63;64.42
22651;BME280;11492;42.646;23.400;2023-02-03T06:14:27;95518.91;;;2.74;64.34
22651;BME280;11492;42.646;23.400;2023-02-03T06:16:53;95523.28;;;2.83;65.21
22651;BME280;11492;42.646;23.400;2023-02-03T06:19:18;95524.31;;;2.91;64.89
22651;BME280;11492;42.646;23.400;2023-02-03T06:21:44;95545.88;;;3.18;65.80
22651;BME280;11492;42.646;23.400;2023-02-03T06:24:09;95530.00;;;2.84;64.16
22651;BME280;11492;42.646;23.400;2023-02-03T06:26:35;95535.00;;;2.85;63.94
22651;BME280;11492;42.646;23.400;2023-02-03T06:29:00;95529.06;;;2.96;64.19
22651;BME280;11492;42.646;23.400;2023-02-03T06:31:26;95536.69;;;2.96;64.45
22651;BME280;11492;42.646;23.400;2023-02-03T06:33:51;95539.13;;;2.97;64.53
22651;BME280;11492;42.646;23.400;2023-02-03T06:36:17;95549.81;;;2.91;63.72
22651;BME280;11492;42.646;23.400;2023-02-03T06:38:42;95539.38;;;2.83;64.31
22651;BME280;11492;42.646;23.400;2023-02-03T06:41:08;95551.53;;;2.91;64.68
22651;BME280;11492;42.646;23.400;2023-02-03T06:43:33;95546.03;;;2.75;64.21
22651;BME280;11492;42.646;23.400;2023-02-03T06:45:59;95549.75;;;2.71;63.94
22651;BME280;11492;42.646;23.400;2023-02-03T06:48:25;95556.88;;;2.88;63.68
22651;BME280;11492;42.646;23.400;2023-02-03T06:50:50;95559.28;;;2.89;63.11
22651;BME280;11492;42.646;23.400;2023-02-03T06:53:16;95553.41;;;2.78;63.09
22651;BME280;11492;42.646;23.400;2023-02-03T06:55:41;95551.53;;;2.91;63.11
22651;BME280;11492;42.646;23.400;2023-02-03T06:58:07;95545.91;;;3.07;62.71
22651;BME280;11492;42.646;23.400;2023-02-03T07:00:32;95544.94;;;3.19;62.12
22651;BME280;11492;42.646;23.400;2023-02-03T07:02:58;95551.22;;;3.15;62.19
22651;BME280;11492;42.646;23.400;2023-02-03T07:05:24;95545.25;;;3.05;61.84
22651;BME280;11492;42.646;23.400;2023-02-03T07:07:52;95544.75;;;3.11;61.81
22651;BME280;11492;42.646;23.400;2023-02-03T07:10:18;95542.47;;;3.28;61.48
22651;BME280;11492;42.646;23.400;2023-02-03T07:12:43;95536.50;;;3.39;61.52
22651;BME280;11492;42.646;23.400;2023-02-03T07:15:10;95553.13;;;3.33;61.26
22651;BME280;11492;42.646;23.400;2023-02-03T07:17:35;95550.97;;;3.18;61.02
22651;BME280;11492;42.646;23.400;2023-02-03T07:20:01;95551.22;;;3.15;61.37
22651;BME280;11492;42.646;23.400;2023-02-03T07:22:26;95546.31;;;3.23;61.72
22651;BME280;11492;42.646;23.400;2023-02-03T07:24:52;95566.44;;;3.37;60.81
22651;BME280;11492;42.646;23.400;2023-02-03T07:27:17;95563.31;;;3.33;60.00
22651;BME280;11492;42.646;23.400;2023-02-03T07:29:43;95565.75;;;3.55;60.76
22651;BME280;11492;42.646;23.400;2023-02-03T07:32:09;95569.56;;;3.60;60.09
22651;BME280;11492;42.646;23.400;2023-02-03T07:34:34;95570.50;;;3.59;59.86
22651;BME280;11492;42.646;23.400;2023-02-03T07:37:00;95575.03;;;3.76;59.86
22651;BME280;11492;42.646;23.400;2023-02-03T07:39:25;95578.59;;;3.84;60.78
22651;BME280;11492;42.646;23.400;2023-02-03T07:41:51;95574.44;;;3.83;57.45
22651;BME280;11492;42.646;23.400;2023-02-03T07:44:16;95569.94;;;3.96;58.18
22651;BME280;11492;42.646;23.400;2023-02-03T07:46:41;95580.81;;;4.47;57.77
22651;BME280;11492;42.646;23.400;2023-02-03T07:49:12;95577.31;;;4.48;56.86
22651;BME280;11492;42.646;23.400;2023-02-03T07:51:37;95583.78;;;4.52;56.41
22651;BME280;11492;42.646;23.400;2023-02-03T07:54:03;95582.34;;;4.30;56.20
22651;BME280;11492;42.646;23.400;2023-02-03T07:56:29;95572.81;;;4.32;56.52
22651;BME280;11492;42.646;23.400;2023-02-03T07:58:59;95577.13;;;4.11;56.61
22651;BME280;11492;42.646;23.400;2023-02-03T08:01:26;95560.50;;;4.17;57.01
22651;BME280;11492;42.646;23.400;2023-02-03T08:03:51;95575.75;;;4.07;57.37
22651;BME280;11492;42.646;23.400;2023-02-03T08:06:17;95562.69;;;4.01;56.23
22651;BME280;11492;42.646;23.400;2023-02-03T08:08:42;95573.16;;;3.98;56.98
22651;BME280;11492;42.646;23.400;2023-02-03T08:11:08;95578.25;;;3.98;56.92
22651;BME280;11492;42.646;23.400;2023-02-03T08:13:33;95574.97;;;4.07;56.73
22651;BME280;11492;42.646;23.400;2023-02-03T08:15:59;95572.88;;;4.21;56.23
22651;BME280;11492;42.646;23.400;2023-02-03T08:18:24;95579.19;;;4.17;56.92
22651;BME280;11492;42.646;23.400;2023-02-03T08:20:50;95585.97;;;4.27;57.20
22651;BME280;11492;42.646;23.400;2023-02-03T08:23:15;95584.34;;;4.65;56.46
22651;BME280;11492;42.646;23.400;2023-02-03T08:25:41;95584.94;;;4.78;55.95
22651;BME280;11492;42.646;23.400;2023-02-03T08:28:06;95589.22;;;4.68;55.58
22651;BME280;11492;42.646;23.400;2023-02-03T08:30:32;95592.59;;;5.35;54.88
22651;BME280;11492;42.646;23.400;2023-02-03T08:32:57;95582.69;;;7.56;49.40
22651;BME280;11492;42.646;23.400;2023-02-03T08:35:23;95579.25;;;9.23;44.88
22651;BME280;11492;42.646;23.400;2023-02-03T08:37:48;95581.88;;;10.72;41.58
22651;BME280;11492;42.646;23.400;2023-02-03T08:40:13;95592.47;;;11.68;39.44
22651;BME280;11492;42.646;23.400;2023-02-03T08:42:39;95583.88;;;10.46;39.43
22651;BME280;11492;42.646;23.400;2023-02-03T08:45:05;95582.94;;;11.91;37.85
22651;BME280;11492;42.646;23.400;2023-02-03T08:47:31;95570.84;;;12.42;36.16
22651;BME280;11492;42.646;23.400;2023-02-03T08:49:56;95577.03;;;12.55;36.12
22651;BME280;11492;42.646;23.400;2023-02-03T08:52:22;95595.50;;;12.88;35.04
22651;BME280;11492;42.646;23.400;2023-02-03T08:54:47;95595.25;;;12.97;35.19
22651;BME280;11492;42.646;23.400;2023-02-03T08:57:13;95596.31;;;13.17;35.06
22651;BME280;11492;42.646;23.400;2023-02-03T08:59:40;95591.69;;;13.96;33.52
22651;BME280;11492;42.646;23.400;2023-02-03T09:02:10;95585.09;;;15.16;31.63
22651;BME280;11492;42.646;23.400;2023-02-03T09:04:37;95592.09;;;16.08;30.67
22651;BME280;11492;42.646;23.400;2023-02-03T09:07:02;95591.91;;;14.63;31.63
22651;BME280;11492;42.646;23.400;2023-02-03T09:09:29;95599.75;;;14.01;33.02
22651;BME280;11492;42.646;23.400;2023-02-03T09:11:54;95607.22;;;13.76;33.51
22651;BME280;11492;42.646;23.400;2023-02-03T09:14:27;95605.03;;;14.76;32.36
22651;BME280;11492;42.646;23.400;2023-02-03T09:16:52;95604.88;;;15.50;31.79
22651;BME280;11492;42.646;23.400;2023-02-03T09:19:18;95600.63;;;14.08;32.70
22651;BME280;11492;42.646;23.400;2023-02-03T09:21:43;95584.16;;;14.22;32.40
22651;BME280;11492;42.646;23.400;2023-02-03T09:24:09;95563.84;;;16.24;30.65
22651;BME280;11492;42.646;23.400;2023-02-03T09:26:35;95572.28;;;16.90;29.01
22651;BME280;11492;42.646;23.400;2023-02-03T09:29:00;95559.91;;;15.69;30.50
22651;BME280;11492;42.646;23.400;2023-02-03T09:31:26;95567.03;;;16.07;30.72
22651;BME280;11492;42.646;23.400;2023-02-03T09:33:51;95570.19;;;16.02;29.95
22651;BME280;11492;42.646;23.400;2023-02-03T09:36:17;95576.75;;;14.67;31.29
22651;BME280;11492;42.646;23.400;2023-02-03T09:38:42;95559.84;;;15.56;31.70
22651;BME280;11492;42.646;23.400;2023-02-03T09:41:21;95569.31;;;15.70;30.83
22651;BME280;11492;42.646;23.400;2023-02-03T09:46:40;95565.94;;;15.30;31.27
22651;BME280;11492;42.646;23.400;2023-02-03T09:49:33;95562.06;;;15.59;30.39
22651;BME280;11492;42.646;23.400;2023-02-03T09:52:02;95568.50;;;15.63;30.36
22651;BME280;11492;42.646;23.400;2023-02-03T09:54:38;95574.44;;;15.51;30.08
22651;BME280;11492;42.646;23.400;2023-02-03T09:57:28;95577.69;;;15.53;31.02
22651;BME280;11492;42.646;23.400;2023-02-03T09:59:56;95572.28;;;15.15;29.62
22651;BME280;11492;42.646;23.400;2023-02-03T10:02:44;95586.06;;;13.58;30.88
22651;BME280;11492;42.646;23.400;2023-02-03T10:11:54;95578.91;;;14.16;31.02
22651;BME280;11492;42.646;23.400;2023-02-03T10:17:33;95562.47;;;16.22;29.36
22651;BME280;11492;42.646;23.400;2023-02-03T10:20:05;95572.50;;;16.82;27.77
22651;BME280;11492;42.646;23.400;2023-02-03T10:22:40;95570.03;;;17.25;27.45
22651;BME280;11492;42.646;23.400;2023-02-03T10:27:39;95582.13;;;15.65;27.59
22651;BME280;11492;42.646;23.400;2023-02-03T10:30:21;95587.38;;;13.05;31.15
22651;BME280;11492;42.646;23.400;2023-02-03T10:32:53;95590.59;;;12.06;33.19
22651;BME280;11492;42.646;23.400;2023-02-03T10:35:21;95585.91;;;11.20;34.30
22651;BME280;11492;42.646;23.400;2023-02-03T10:37:56;95573.06;;;10.51;36.19
22651;BME280;11492;42.646;23.400;2023-02-03T10:40:23;95594.19;;;8.79;37.25
22651;BME280;11492;42.646;23.400;2023-02-03T10:42:50;95584.22;;;8.51;38.70
22651;BME280;11492;42.646;23.400;2023-02-03T10:45:38;95577.66;;;8.56;39.14
22651;BME280;11492;42.646;23.400;2023-02-03T10:48:06;95592.88;;;7.48;40.42
22651;BME280;11492;42.646;23.400;2023-02-03T10:50:37;95579.81;;;7.25;40.81
22651;BME280;11492;42.646;23.400;2023-02-03T10:53:32;95587.94;;;7.38;41.54
22651;BME280;11492;42.646;23.400;2023-02-03T10:56:06;95589.88;;;7.36;41.83
22651;BME280;11492;42.646;23.400;2023-02-03T10:58:33;95587.03;;;7.12;43.02
22651;BME280;11492;42.646;23.400;2023-02-03T11:01:16;95599.88;;;6.86;42.74
22651;BME280;11492;42.646;23.400;2023-02-03T11:03:44;95587.56;;;7.16;42.59
22651;BME280;11492;42.646;23.400;2023-02-03T11:06:17;95607.84;;;6.83;42.78
22651;BME280;11492;42.646;23.400;2023-02-03T11:08:46;95594.41;;;6.71;43.11
22651;BME280;11492;42.646;23.400;2023-02-03T11:13:40;95597.56;;;6.56;40.76
22651;BME280;11492;42.646;23.400;2023-02-03T11:19:00;95591.94;;;6.79;40.29
22651;BME280;11492;42.646;23.400;2023-02-03T11:24:20;95582.69;;;6.96;40.55
22651;BME280;11492;42.646;23.400;2023-02-03T11:26:56;95571.81;;;7.62;40.05
22651;BME280;11492;42.646;23.400;2023-02-03T11:29:24;95566.41;;;7.90;38.61
22651;BME280;11492;42.646;23.400;2023-02-03T11:31:53;95563.38;;;8.62;36.58
22651;BME280;11492;42.646;23.400;2023-02-03T11:34:39;95553.06;;;9.82;33.46
22651;BME280;11492;42.646;23.400;2023-02-03T11:37:38;95531.91;;;12.35;29.82
22651;BME280;11492;42.646;23.400;2023-02-03T11:42:38;95521.03;;;13.25;28.29
22651;BME280;11492;42.646;23.400;2023-02-03T11:47:58;95512.75;;;15.45;27.39
22651;BME280;11492;42.646;23.400;2023-02-03T11:50:30;95501.91;;;17.33;24.95
22651;BME280;11492;42.646;23.400;2023-02-03T11:53:24;95499.28;;;16.13;25.59
22651;BME280;11492;42.646;23.400;2023-02-03T12:07:33;95538.13;;;10.70;31.33
22651;BME280;11492;42.646;23.400;2023-02-03T12:15:35;95498.69;;;16.62;24.86
22651;BME280;11492;42.646;23.400;2023-02-03T12:18:07;95524.97;;;18.94;22.38
22651;BME280;11492;42.646;23.400;2023-02-03T12:20:39;95501.22;;;16.94;22.73
22651;BME280;11492;42.646;23.400;2023-02-03T12:23:17;95512.59;;;17.25;22.56
22651;BME280;11492;42.646;23.400;2023-02-03T12:25:53;95524.38;;;16.21;23.59
22651;BME280;11492;42.646;23.400;2023-02-03T12:31:03;95529.41;;;13.41;26.26
22651;BME280;11492;42.646;23.400;2023-02-03T12:33:41;95525.81;;;11.48;26.96
22651;BME280;11492;42.646;23.400;2023-02-03T12:36:14;95513.47;;;11.28;28.08
22651;BME280;11492;42.646;23.400;2023-02-03T12:39:02;95507.84;;;12.77;26.79
22651;BME280;11492;42.646;23.400;2023-02-03T12:41:34;95485.63;;;15.14;25.11
22651;BME280;11492;42.646;23.400;2023-02-03T12:44:30;95486.56;;;17.55;22.17
22651;BME280;11492;42.646;23.400;2023-02-03T12:49:37;95472.63;;;16.24;23.18
22651;BME280;11492;42.646;23.400;2023-02-03T12:52:29;95481.25;;;16.56;23.50
22651;BME280;11492;42.646;23.400;2023-02-03T12:55:05;95465.94;;;16.66;23.04
22651;BME280;11492;42.646;23.400;2023-02-03T13:06:14;95463.56;;;16.58;23.54
22651;BME280;11492;42.646;23.400;2023-02-03T13:17:05;95469.75;;;19.31;21.04
22651;BME280;11492;42.646;23.400;2023-02-03T13:19:45;95448.69;;;18.91;21.66
22651;BME280;11492;42.646;23.400;2023-02-03T13:22:14;95463.44;;;19.03;21.76
22651;BME280;11492;42.646;23.400;2023-02-03T13:25:08;95458.56;;;20.51;20.84
22651;BME280;11492;42.646;23.400;2023-02-03T13:33:55;95469.56;;;15.63;25.25
22651;BME280;11492;42.646;23.400;2023-02-03T13:37:24;95463.16;;;15.59;25.52
22651;BME280;11492;42.646;23.400;2023-02-03T13:44:38;95450.81;;;18.10;23.20
22651;BME280;11492;42.646;23.400;2023-02-03T13:47:05;95453.97;;;18.43;22.55
22651;BME280;11492;42.646;23.400;2023-02-03T13:49:38;95451.72;;;19.23;21.71
22651;BME280;11492;42.646;23.400;2023-02-03T13:52:22;95452.75;;;18.87;22.23
22651;BME280;11492;42.646;23.400;2023-02-03T13:54:48;95472.22;;;15.89;25.58
22651;BME280;11492;42.646;23.400;2023-02-03T13:57:22;95457.91;;;14.54;27.03
22651;BME280;11492;42.646;23.400;2023-02-03T13:59:51;95469.31;;;13.23;28.44
22651;BME280;11492;42.646;23.400;2023-02-03T14:07:33;95505.91;;;8.94;35.80
22651;BME280;11492;42.646;23.400;2023-02-03T14:15:28;95514.75;;;8.01;38.61
22651;BME280;11492;42.646;23.400;2023-02-03T14:18:02;95509.91;;;7.73;39.10
22651;BME280;11492;42.646;23.400;2023-02-03T14:22:59;95520.72;;;7.08;40.78
22651;BME280;11492;42.646;23.400;2023-02-03T14:25:39;95505.03;;;7.11;40.75
22651;BME280;11492;42.646;23.400;2023-02-03T14:28:14;95510.38;;;7.00;41.11
22651;BME280;11492;42.646;23.400;2023-02-03T14:31:02;95501.88;;;7.34;40.44
22651;BME280;11492;42.646;23.400;2023-02-03T14:33:48;95504.44;;;7.51;40.24
22651;BME280;11492;42.646;23.400;2023-02-03T14:38:52;95505.00;;;7.45;40.99
22651;BME280;11492;42.646;23.400;2023-02-03T14:41:24;95497.53;;;7.34;40.75
22651;BME280;11492;42.646;23.400;2023-02-03T14:44:11;95507.44;;;6.95;41.58
22651;BME280;11492;42.646;23.400;2023-02-03T14:49:36;95511.03;;;6.32;43.11
22651;BME280;11492;42.646;23.400;2023-02-03T14:52:32;95501.59;;;6.32;42.52
22651;BME280;11492;42.646;23.400;2023-02-03T14:55:16;95499.41;;;6.37;43.55
22651;BME280;11492;42.646;23.400;2023-02-03T15:05:41;95487.19;;;5.68;41.88
22651;BME280;11492;42.646;23.400;2023-02-03T15:08:43;95476.94;;;5.68;42.42
22651;BME280;11492;42.646;23.400;2023-02-03T15:11:29;95481.00;;;5.61;42.50
22651;BME280;11492;42.646;23.400;2023-02-03T15:16:42;95449.50;;;5.42;42.35
22651;BME280;11492;42.646;23.400;2023-02-03T15:19:19;95442.25;;;5.37;41.98
22651;BME280;11492;42.646;23.400;2023-02-03T15:21:46;95450.06;;;5.45;42.94
22651;BME280;11492;42.646;23.400;2023-02-03T15:24:16;95442.13;;;5.39;43.13
22651;BME280;11492;42.646;23.400;2023-02-03T15:26:45;95440.09;;;5.33;42.97
22651;BME280;11492;42.646;23.400;2023-02-03T15:29:28;95436.22;;;5.10;43.86
22651;BME280;11492;42.646;23.400;2023-02-03T15:32:08;95438.22;;;5.16;44.21
22651;BME280;11492;42.646;23.400;2023-02-03T15:34:45;95438.25;;;4.97;43.92
22651;BME280;11492;42.646;23.400;2023-02-03T15:37:17;95436.91;;;5.03;44.55